Bookmark and Share
Track history (hours):
 

Seaspan Champion

Last reported at 2013-Apr-20 18:33 UTC. Time now 2014-Apr-20 23:48 UTC.
Position N 49°10' W 122°55'.
Warning: this ship's position is years out of date!

NotesDate/timePositionNaut miles runAvg speedWind from/ knotsBaromVisibWave heightAir tempDewpointWater temp
2013-Apr-20 18:33N 49°10' W 122°55'0 0.0
2013-Apr-20 17:33N 49°10' W 122°55'2 1.7
2013-Apr-20 16:33N 49°10' W 122°58'0 0.0
2013-Apr-20 15:33N 49°10' W 122°58'0 0.0
2013-Apr-20 14:33N 49°10' W 122°58'0 0.0
2013-Apr-20 13:33N 49°10' W 122°58'0 0.0
2013-Apr-20 12:33N 49°10' W 122°58'0 0.0
2013-Apr-20 11:33N 49°10' W 122°58'3 3.0
2013-Apr-20 10:33N 49°09' W 123°02'6 6.1
2013-Apr-20 09:33N 49°07' W 123°11'5 5.3
2013-Apr-20 08:33N 49°07' W 123°19'7 6.7
2013-Apr-20 07:33N 49°13' W 123°18'3 3.4
2013-Apr-20 06:33N 49°17' W 123°18'10 5.2
2013-Apr-20 04:33N 49°20' W 123°34'5 5.3
2013-Apr-20 03:33N 49°22' W 123°41'6 5.5
2013-Apr-20 02:33N 49°24' W 123°49'5 5.5
2013-Apr-20 01:33N 49°26' W 123°57'6 5.7
2013-Apr-20 00:33N 49°30' W 124°04'5 5.3
2013-Apr-19 23:33N 49°34' W 124°09'5 5.0
2013-Apr-19 22:33N 49°38' W 124°14'5 5.2
2013-Apr-19 21:33N 49°42' W 124°19'6 5.7
2013-Apr-19 20:33N 49°45' W 124°26'5 5.3
2013-Apr-19 19:33N 49°48' W 124°33'4 3.8
2013-Apr-19 18:32N 49°52' W 124°34'1 1.1
2013-Apr-19 17:33N 49°52' W 124°36'2 1.9
2013-Apr-19 16:33N 49°50' W 124°35'2 2.4
2013-Apr-19 15:33N 49°48' W 124°33'2 2.4
2013-Apr-19 14:33N 49°47' W 124°31'3 3.0
2013-Apr-19 13:33N 49°45' W 124°27'3 3.2
2013-Apr-19 12:33N 49°44' W 124°22'3 3.4
2013-Apr-19 11:33N 49°42' W 124°18'4 3.8
2013-Apr-19 10:33N 49°39' W 124°14'4 4.4
2013-Apr-19 09:33N 49°36' W 124°10'5 5.1
2013-Apr-19 08:33N 49°32' W 124°05'6 5.9
2013-Apr-19 07:33N 49°27' W 123°59'6 6.4
2013-Apr-19 06:33N 49°25' W 123°50'12 5.9
2013-Apr-19 04:33N 49°20' W 123°33'6 5.6
2013-Apr-19 03:33N 49°18' W 123°25'5 5.1
2013-Apr-19 02:33N 49°15' W 123°19'5 4.8
2013-Apr-19 01:33N 49°10' W 123°19'4 3.7
2013-Apr-19 00:33N 49°07' W 123°16'8 8.0
2013-Apr-18 23:33N 49°08' W 123°04'4 4.3
2013-Apr-18 22:33N 49°09' W 122°57'1 0.5
2013-Apr-18 21:33N 49°10' W 122°58'0 0.0
2013-Apr-18 20:33N 49°10' W 122°58'0 0.0
2013-Apr-18 19:33N 49°10' W 122°58'0 0.0
2013-Apr-18 18:33N 49°10' W 122°58'0 0.0
2013-Apr-18 17:34N 49°10' W 122°58'0 0.0
2013-Apr-18 16:33N 49°10' W 122°58'0 0.0
2013-Apr-18 15:33N 49°10' W 122°58'0 0.0
2013-Apr-18 14:33N 49°10' W 122°58'0 0.1
2013-Apr-18 13:33N 49°10' W 122°58'0 0.0
2013-Apr-18 12:33N 49°10' W 122°58'0 0.0
2013-Apr-18 11:33N 49°10' W 122°58'0 0.0
2013-Apr-18 10:34N 49°10' W 122°58'0 0.0
2013-Apr-18 09:33N 49°10' W 122°58'0 0.0
2013-Apr-18 08:33N 49°10' W 122°58'0 0.0
2013-Apr-18 07:34N 49°10' W 122°58'1 0.9
2013-Apr-18 06:33N 49°10' W 122°57'2 0.9
2013-Apr-18 04:33N 49°09' W 122°60'7 6.7
2013-Apr-18 03:33N 49°06' W 123°09'6 5.7
2013-Apr-18 02:33N 49°06' W 123°18'6 5.7
2013-Apr-18 01:33N 49°09' W 123°25'8 7.6
2013-Apr-18 00:33N 49°14' W 123°34'8 7.8
2013-Apr-17 23:33N 49°19' W 123°44'7 7.5
2013-Apr-17 22:33N 49°24' W 123°53'7 6.9
2013-Apr-17 21:33N 49°28' W 124°01'7 7.1
2013-Apr-17 20:33N 49°33' W 124°08'7 7.0
2013-Apr-17 19:33N 49°39' W 124°15'7 6.6
2013-Apr-17 18:33N 49°43' W 124°22'7 6.8
2013-Apr-17 17:33N 49°47' W 124°31'7 7.0
2013-Apr-17 16:33N 49°50' W 124°41'7 7.5
2013-Apr-17 15:33N 49°51' W 124°52'7 6.8
2013-Apr-17 14:33N 49°54' W 125°02'7 6.7
2013-Apr-17 13:33N 49°58' W 125°10'7 7.3
2013-Apr-17 12:33N 50°05' W 125°16'6 5.6
2013-Apr-17 11:33N 50°09' W 125°21'6 5.5
2013-Apr-17 10:32N 50°14' W 125°23'6 5.8
2013-Apr-17 09:33N 50°20' W 125°26'  
2013-Apr-14 15:26N 50°15' W 125°23'7 8.4
2013-Apr-14 14:32N 50°07' W 125°21'6 6.0
2013-Apr-14 13:32N 50°03' W 125°14'5 4.9
2013-Apr-14 12:32N 49°59' W 125°10'8 7.9
2013-Apr-14 11:33N 49°54' W 125°01'8 8.3
2013-Apr-14 10:33N 49°51' W 124°49'9 8.7
2013-Apr-14 09:33N 49°49' W 124°36'9 8.8
2013-Apr-14 08:33N 49°45' W 124°24'9 8.6
2013-Apr-14 07:33N 49°39' W 124°15'9 8.5
2013-Apr-14 06:33N 49°32' W 124°06'17 8.5
2013-Apr-14 04:33N 49°23' W 123°43'9 9.1
2013-Apr-14 03:33N 49°20' W 123°30'9 8.6
2013-Apr-14 02:33N 49°19' W 123°17'7 7.3
2013-Apr-14 01:33N 49°18' W 123°06'0 0.3
2013-Apr-14 00:33N 49°18' W 123°06'1 1.1
2013-Apr-13 23:33N 49°18' W 123°07'1 1.2
2013-Apr-13 22:33N 49°19' W 123°06'0 0.1
2013-Apr-13 21:33N 49°19' W 123°06'0 0.0
2013-Apr-13 20:33N 49°19' W 123°06'0 0.0
2013-Apr-13 19:34N 49°19' W 123°06'0 0.0
2013-Apr-13 18:33N 49°19' W 123°06'0 0.0
2013-Apr-13 17:33N 49°19' W 123°06'0 0.0
2013-Apr-13 16:33N 49°19' W 123°06'0 0.0
2013-Apr-13 15:33N 49°19' W 123°06'0 0.0
2013-Apr-13 14:33N 49°19' W 123°06'0 0.0
2013-Apr-13 13:33N 49°19' W 123°06'0 0.0
2013-Apr-13 12:33N 49°19' W 123°06'0 0.0
2013-Apr-13 11:33N 49°19' W 123°06'0 0.0
2013-Apr-13 10:33N 49°19' W 123°06'0 0.0
2013-Apr-13 09:33N 49°19' W 123°06'0 0.0
2013-Apr-13 08:33N 49°19' W 123°06'0 0.0
2013-Apr-13 07:33N 49°19' W 123°06'0 0.0
2013-Apr-13 06:33N 49°19' W 123°06'7 3.7
2013-Apr-13 04:34N 49°17' W 123°17'1010.3
2013-Apr-13 03:34N 49°06' W 123°18'9 9.0
2013-Apr-13 02:33N 49°07' W 123°04'4 3.8
2013-Apr-13 01:33N 49°09' W 122°59'4 3.6
2013-Apr-13 00:34N 49°08' W 123°04'5 5.4
2013-Apr-12 23:33N 49°08' W 123°12'5 4.8
2013-Apr-12 22:34N 49°06' W 123°20'6 6.5
2013-Apr-12 21:33N 49°13' W 123°18'4 4.0
2013-Apr-12 20:34N 49°17' W 123°18'4 3.7
2013-Apr-12 19:33N 49°18' W 123°23'5 4.8
2013-Apr-12 18:33N 49°19' W 123°31'5 5.4
2013-Apr-12 17:33N 49°22' W 123°38'4 4.5
2013-Apr-12 16:33N 49°23' W 123°44'4 3.8
2013-Apr-12 15:33N 49°25' W 123°50'3 3.5
2013-Apr-12 14:33N 49°26' W 123°55'3 3.5
2013-Apr-12 13:33N 49°28' W 123°60'4 3.5
2013-Apr-12 12:33N 49°30' W 124°03'5 4.8
2013-Apr-12 11:33N 49°34' W 124°08'6 5.8
2013-Apr-12 10:33N 49°38' W 124°15'6 6.4
2013-Apr-12 09:33N 49°43' W 124°21'6 6.1
2013-Apr-12 08:33N 49°46' W 124°29'6 5.7
2013-Apr-12 07:33N 49°51' W 124°33'1 1.0
2013-Apr-12 06:30N 49°52' W 124°34'9 4.8
2013-Apr-12 04:33N 49°54' W 124°48'6 6.4
2013-Apr-12 03:33N 49°56' W 124°58'6 6.3
2013-Apr-12 02:33N 49°58' W 125°07'8 7.4
2013-Apr-12 01:29N 50°04' W 125°15'8 8.3
2013-Apr-12 00:32N 50°11' W 125°22'5 3.7
2013-Apr-11 23:15N 50°15' W 125°23'  

Dump ship's entire track history

sailing weather and tide predictions

Seaspan Champion — VDPS — position and weather